createdAt,value
2019-04-21T00:00:26.077Z,47.08
2019-04-21T00:01:26.407Z,47.89
2019-04-21T00:02:31.997Z,48.30
2019-04-21T00:03:34.070Z,48.19
2019-04-21T00:04:40.804Z,48.19
2019-04-21T00:05:46.770Z,48.30
2019-04-21T00:06:48.174Z,47.49
2019-04-21T00:07:43.459Z,48.63
2019-04-21T00:09:03.819Z,48.42
2019-04-21T00:09:52.354Z,48.32
2019-04-21T00:10:48.493Z,48.30
2019-04-21T00:11:53.985Z,48.73
2019-04-21T00:12:40.522Z,48.22
2019-04-21T00:13:42.746Z,48.52
2019-04-21T00:14:42.408Z,48.52
2019-04-21T00:15:34.551Z,48.63
2019-04-21T00:16:34.719Z,48.83
2019-04-21T00:17:27.029Z,48.42
2019-04-21T00:18:25.403Z,48.75
2019-04-21T00:19:28.456Z,49.05
2019-04-21T00:20:33.111Z,48.96
2019-04-21T00:21:35.957Z,49.67
2019-04-21T00:22:40.518Z,49.67
2019-04-21T00:23:41.138Z,49.90
2019-04-21T00:24:43.489Z,50.10
2019-04-21T00:25:38.734Z,50.71
2019-04-21T00:26:45.870Z,50.41
2019-04-21T00:27:44.018Z,50.61
2019-04-21T00:28:49.113Z,50.61
2019-04-21T00:29:45.731Z,50.10
2019-04-21T00:30:44.228Z,51.43
2019-04-21T00:31:41.949Z,52.04
2019-04-21T00:32:39.217Z,51.43
2019-04-21T00:33:29.945Z,51.43
2019-04-21T00:34:25.778Z,51.22
2019-04-21T00:35:26.506Z,51.43
2019-04-21T00:36:33.423Z,51.43
2019-04-21T00:37:47.000Z,51.43
2019-04-21T00:38:59.110Z,51.73
2019-04-21T00:40:05.764Z,51.43
2019-04-21T00:40:50.522Z,51.55
2019-04-21T00:41:48.569Z,51.73
2019-04-21T00:42:43.104Z,51.76
2019-04-21T00:43:42.622Z,51.86
2019-04-21T00:44:36.366Z,51.55
2019-04-21T00:45:41.218Z,51.65
2019-04-21T00:46:40.312Z,52.37
2019-04-21T00:47:38.783Z,52.27
2019-04-21T00:48:49.764Z,52.06
2019-04-21T00:49:43.523Z,52.78
2019-04-21T00:51:03.502Z,52.78
2019-04-21T00:51:54.149Z,52.06
2019-04-21T00:52:52.586Z,52.67
2019-04-21T00:53:51.585Z,51.98
2019-04-21T00:55:05.826Z,51.57
2019-04-21T00:56:49.759Z,52.29
2019-04-21T00:57:51.942Z,52.50
2019-04-21T00:58:48.664Z,52.50
2019-04-21T00:59:46.335Z,53.03
2019-04-21T01:00:46.234Z,53.31
2019-04-21T01:01:46.075Z,53.23
2019-04-21T01:02:53.347Z,53.13
2019-04-21T01:03:52.977Z,53.23
2019-04-21T01:04:49.527Z,52.83
2019-04-21T01:05:52.830Z,53.36
2019-04-21T01:06:48.043Z,53.75
2019-04-21T01:07:45.539Z,53.85
2019-04-21T01:08:47.341Z,53.44
2019-04-21T01:09:42.327Z,53.36
2019-04-21T01:10:38.361Z,53.47
2019-04-21T01:11:51.849Z,53.64
2019-04-21T01:12:53.181Z,53.57
2019-04-21T01:13:54.673Z,53.88
2019-04-21T01:14:51.705Z,53.69
2019-04-21T01:15:51.520Z,54.18
2019-04-21T01:16:45.317Z,54.59
2019-04-21T01:17:48.137Z,54.69
2019-04-21T01:18:44.544Z,54.39
2019-04-21T01:19:41.158Z,54.69
2019-04-21T01:20:25.041Z,54.49
2019-04-21T01:21:24.064Z,54.80
2019-04-21T01:22:24.025Z,55.13
2019-04-21T01:23:25.482Z,55.02
2019-04-21T01:24:30.747Z,55.43
2019-04-21T01:25:33.102Z,54.92
2019-04-21T01:26:39.363Z,55.13
2019-04-21T01:27:48.320Z,54.82
2019-04-21T01:28:39.821Z,55.23
2019-04-21T01:29:45.849Z,55.13
2019-04-21T01:30:50.347Z,55.02
2019-04-21T01:31:41.619Z,55.64
2019-04-21T01:32:51.251Z,55.74
2019-04-21T01:33:44.715Z,55.66
2019-04-21T01:34:45.088Z,56.28
2019-04-21T01:35:44.098Z,56.28
2019-04-21T01:36:46.156Z,55.46
2019-04-21T01:37:52.847Z,55.13
2019-04-21T01:38:48.175Z,55.46
2019-04-21T01:39:47.534Z,55.36
2019-04-21T01:40:47.647Z,56.28
2019-04-21T01:41:47.344Z,56.79
2019-04-21T01:42:45.493Z,56.28
2019-04-21T01:43:47.761Z,56.38
2019-04-21T01:44:46.215Z,56.89
2019-04-21T01:45:43.505Z,56.59
2019-04-21T01:46:40.866Z,57.10
2019-04-21T01:47:44.908Z,57.02
2019-04-21T01:48:40.321Z,57.02
2019-04-21T01:49:39.518Z,57.43
2019-04-21T01:50:42.866Z,57.64
2019-04-21T01:51:59.679Z,57.23
2019-04-21T01:52:53.134Z,57.74
2019-04-21T01:53:48.885Z,57.84
2019-04-21T01:54:48.242Z,57.84
2019-04-21T01:55:43.141Z,57.76
2019-04-21T01:56:44.820Z,57.76
2019-04-21T01:57:45.277Z,57.94
2019-04-21T01:58:36.330Z,57.97
2019-04-21T01:59:39.576Z,57.66
2019-04-21T02:00:40.853Z,57.66
2019-04-21T02:01:45.835Z,57.66
2019-04-21T02:02:43.310Z,57.76
2019-04-21T02:04:54.287Z,58.28
2019-04-21T02:05:51.982Z,58.38
2019-04-21T02:06:45.630Z,58.51
2019-04-21T02:07:44.515Z,58.58
2019-04-21T02:08:41.487Z,58.69
2019-04-21T02:09:46.354Z,58.79
2019-04-21T02:10:53.030Z,58.69
2019-04-21T02:11:50.267Z,59.30
2019-04-21T02:12:46.028Z,59.23
2019-04-21T02:13:53.759Z,59.12
2019-04-21T02:14:50.495Z,59.53
2019-04-21T02:15:48.943Z,59.74
2019-04-21T02:16:47.502Z,59.53
2019-04-21T02:17:47.041Z,59.43
2019-04-21T02:18:43.777Z,59.74
2019-04-21T02:19:37.818Z,59.23
2019-04-21T02:20:38.324Z,59.23
2019-04-21T02:21:39.340Z,59.23
2019-04-21T02:22:59.138Z,59.02
2019-04-21T02:24:05.425Z,58.81
2019-04-21T02:24:51.904Z,58.72
2019-04-21T02:25:44.533Z,58.61
2019-04-21T02:26:47.106Z,58.61
2019-04-21T02:27:55.086Z,57.92
2019-04-21T02:28:49.838Z,58.44
2019-04-21T02:29:48.751Z,58.12
2019-04-21T02:31:04.878Z,58.12
2019-04-21T02:31:57.234Z,58.54
2019-04-21T02:33:02.943Z,58.95
2019-04-21T02:34:11.366Z,59.25
2019-04-21T02:34:59.905Z,59.77
2019-04-21T02:36:04.842Z,59.66
2019-04-21T02:37:05.215Z,59.28
2019-04-21T02:39:06.165Z,60.10
2019-04-21T02:40:04.374Z,59.25
2019-04-21T02:41:56.135Z,60.00
2019-04-21T02:44:02.445Z,60.10
2019-04-21T02:44:51.427Z,59.80
2019-04-21T02:45:56.159Z,59.69
2019-04-21T02:46:50.466Z,60.10
2019-04-21T02:48:04.026Z,59.80
2019-04-21T02:49:13.012Z,59.89
2019-04-21T02:50:00.262Z,60.10
2019-04-21T02:52:13.753Z,59.89
2019-04-21T02:52:57.007Z,60.00
2019-04-21T02:54:53.942Z,60.44
2019-04-21T02:55:50.819Z,60.72
2019-04-21T02:58:01.979Z,60.23
2019-04-21T02:59:58.298Z,60.03
2019-04-21T03:00:55.594Z,60.03
2019-04-21T03:01:55.882Z,60.13
2019-04-21T03:02:55.033Z,59.92
2019-04-21T03:03:55.007Z,59.92
2019-04-21T03:04:53.111Z,59.72
2019-04-21T03:07:01.590Z,60.75
2019-04-21T03:09:54.437Z,60.36
2019-04-21T03:10:59.300Z,61.39
2019-04-21T03:11:57.958Z,61.18
2019-04-21T03:12:53.084Z,61.05
2019-04-21T03:14:00.686Z,60.47
2019-04-21T03:15:59.836Z,60.67
2019-04-21T03:16:47.088Z,60.77
2019-04-21T03:17:56.833Z,60.88
2019-04-21T03:18:57.154Z,61.18
2019-04-21T03:20:10.537Z,61.29
2019-04-21T03:21:00.608Z,61.18
2019-04-21T03:21:57.480Z,61.29
2019-04-21T03:23:00.326Z,61.39
2019-04-21T03:23:57.392Z,61.39
2019-04-21T03:25:52.209Z,61.39
2019-04-21T03:28:56.346Z,61.42
2019-04-21T03:30:21.545Z,61.42
2019-04-21T03:31:24.986Z,61.62
2019-04-21T03:32:14.354Z,61.42
2019-04-21T03:33:23.638Z,61.52
2019-04-21T03:34:28.924Z,61.62
2019-04-21T03:38:00.248Z,62.24
2019-04-21T03:38:53.247Z,62.04
2019-04-21T03:40:07.933Z,62.45
2019-04-21T03:40:53.131Z,61.96
2019-04-21T03:42:01.983Z,61.52
2019-04-21T03:44:02.078Z,61.86
2019-04-21T03:44:56.916Z,62.16
2019-04-21T03:45:49.271Z,61.86
2019-04-21T03:46:55.695Z,61.65
2019-04-21T03:47:53.232Z,62.30
2019-04-21T03:49:04.725Z,62.37
2019-04-21T03:50:49.426Z,62.68
2019-04-21T03:51:57.390Z,61.99
2019-04-21T03:53:55.803Z,62.68
2019-04-21T03:55:07.045Z,62.19
2019-04-21T03:55:54.193Z,62.51
2019-04-21T03:58:19.536Z,62.81
2019-04-21T03:59:01.937Z,63.64
2019-04-21T03:59:55.696Z,63.84
2019-04-21T04:01:02.897Z,63.53
2019-04-21T04:02:03.839Z,63.32
2019-04-21T04:03:13.432Z,63.43
2019-04-21T04:04:53.106Z,64.36
2019-04-21T04:06:09.587Z,63.84
2019-04-21T04:07:06.009Z,64.04
2019-04-21T04:07:59.117Z,63.32
2019-04-21T04:08:57.793Z,63.05
2019-04-21T04:10:07.804Z,62.81
2019-04-21T04:11:04.620Z,62.92
2019-04-21T04:11:50.492Z,63.32
2019-04-21T04:13:01.422Z,63.46
2019-04-21T04:14:07.919Z,63.32
2019-04-21T04:17:14.560Z,63.15
2019-04-21T04:20:51.235Z,63.05
2019-04-21T04:22:59.049Z,64.59
2019-04-21T04:24:57.891Z,63.67
2019-04-21T04:25:49.806Z,63.35
2019-04-21T04:26:57.056Z,63.46
2019-04-21T04:28:10.222Z,63.76
2019-04-21T04:28:56.320Z,63.97
2019-04-21T04:29:59.323Z,63.87
2019-04-21T04:30:52.425Z,63.87
2019-04-21T04:31:53.169Z,63.46
2019-04-21T04:32:46.801Z,63.97
2019-04-21T04:34:57.270Z,63.79
2019-04-21T04:36:01.384Z,63.90
2019-04-21T04:38:00.935Z,63.79
2019-04-21T04:39:02.314Z,63.76
2019-04-21T04:40:59.817Z,63.90
2019-04-21T04:42:12.652Z,63.56
2019-04-21T04:44:03.272Z,63.79
2019-04-21T04:47:05.524Z,63.39
2019-04-21T04:48:09.096Z,63.59
2019-04-21T04:49:06.089Z,64.00
2019-04-21T04:50:53.588Z,63.69
2019-04-21T04:52:09.408Z,63.90
2019-04-21T04:53:48.305Z,64.31
2019-04-21T04:54:55.817Z,63.79
2019-04-21T04:56:57.319Z,64.00
2019-04-21T04:59:18.606Z,64.86
2019-04-21T05:00:01.724Z,65.37
2019-04-21T05:01:59.698Z,65.44
2019-04-21T05:02:56.413Z,64.93
2019-04-21T05:04:05.967Z,64.62
2019-04-21T05:06:04.896Z,65.34
2019-04-21T05:06:05.156Z,65.44
2019-04-21T05:07:00.060Z,65.65
2019-04-21T05:07:57.278Z,65.34
2019-04-21T05:09:57.682Z,64.93
2019-04-21T05:11:50.880Z,64.72
2019-04-21T05:12:53.309Z,65.03
2019-04-21T05:13:57.166Z,64.62
2019-04-21T05:14:57.074Z,64.00
2019-04-21T05:15:53.259Z,64.41
2019-04-21T05:17:52.463Z,63.90
2019-04-21T05:19:06.514Z,63.90
2019-04-21T05:20:05.461Z,64.21
2019-04-21T05:20:53.344Z,64.11
2019-04-21T05:21:48.370Z,64.11
2019-04-21T05:22:49.646Z,63.90
2019-04-21T05:23:44.245Z,64.00
2019-04-21T05:24:40.332Z,64.41
2019-04-21T05:25:37.896Z,64.31
2019-04-21T05:26:39.203Z,63.69
2019-04-21T05:27:39.685Z,64.41
2019-04-21T05:28:39.648Z,64.39
2019-04-21T05:29:49.276Z,63.97
2019-04-21T05:30:50.835Z,63.97
2019-04-21T05:32:45.218Z,64.07
2019-04-21T05:33:47.809Z,64.07
2019-04-21T05:34:42.947Z,64.07
2019-04-21T05:35:47.387Z,63.97
2019-04-21T05:36:45.931Z,63.22
2019-04-21T05:37:43.279Z,63.64
2019-04-21T05:38:42.334Z,63.43
2019-04-21T05:39:40.712Z,63.67
2019-04-21T05:40:37.326Z,63.46
2019-04-21T05:41:37.228Z,62.71
2019-04-21T05:42:39.642Z,62.40
2019-04-21T05:43:38.992Z,62.40
2019-04-21T05:44:52.785Z,62.60
2019-04-21T05:45:47.741Z,62.92
2019-04-21T05:46:49.572Z,62.30
2019-04-21T05:47:46.265Z,62.60
2019-04-21T05:48:45.740Z,61.27
2019-04-21T05:49:40.077Z,62.09
2019-04-21T05:50:40.285Z,61.96
2019-04-21T05:51:42.767Z,61.47
2019-04-21T05:52:38.187Z,61.68
2019-04-21T05:53:41.249Z,61.24
2019-04-21T05:54:52.675Z,61.44
2019-04-21T05:56:42.396Z,61.47
2019-04-21T05:57:53.306Z,61.44
2019-04-21T05:58:46.552Z,61.44
2019-04-21T05:59:43.731Z,60.83
2019-04-21T06:01:46.374Z,61.55
2019-04-21T06:02:51.986Z,61.24
2019-04-21T06:05:51.107Z,61.32
2019-04-21T06:06:48.418Z,61.42
2019-04-21T06:07:41.271Z,60.60
2019-04-21T06:08:46.890Z,61.11
2019-04-21T06:09:52.375Z,61.62
2019-04-21T06:10:47.500Z,60.70
2019-04-21T06:11:42.378Z,60.70
2019-04-21T06:12:51.043Z,61.08
2019-04-21T06:13:48.215Z,60.91
2019-04-21T06:14:48.272Z,60.47
2019-04-21T06:15:50.031Z,60.77
2019-04-21T06:16:54.470Z,60.67
2019-04-21T06:17:54.915Z,60.47
2019-04-21T06:18:47.988Z,60.47
2019-04-21T06:19:50.301Z,60.47
2019-04-21T06:20:51.816Z,59.54
2019-04-21T06:21:45.199Z,59.44
2019-04-21T06:22:46.292Z,60.57
2019-04-21T06:23:42.004Z,60.26
2019-04-21T06:24:54.661Z,60.36
2019-04-21T06:25:55.625Z,60.47
2019-04-21T06:26:59.255Z,60.67
2019-04-21T06:27:44.364Z,60.47
2019-04-21T06:28:45.327Z,60.95
2019-04-21T06:29:44.145Z,61.08
2019-04-21T06:30:53.014Z,60.64
2019-04-21T06:32:12.776Z,60.64
2019-04-21T06:32:52.195Z,60.57
2019-04-21T06:33:44.690Z,59.72
2019-04-21T06:35:01.913Z,57.98
2019-04-21T06:36:09.006Z,57.77
2019-04-21T06:36:47.508Z,57.87
2019-04-21T06:40:48.306Z,57.43
2019-04-21T06:41:39.745Z,57.54
2019-04-21T06:42:54.014Z,57.54
2019-04-21T06:43:48.577Z,57.43
2019-04-21T06:44:54.563Z,56.82
2019-04-21T06:45:47.287Z,57.33
2019-04-21T06:46:40.433Z,57.31
2019-04-21T06:48:53.816Z,57.92
2019-04-21T06:49:45.642Z,57.82
2019-04-21T06:50:51.047Z,57.71
2019-04-21T06:51:43.582Z,57.92
2019-04-21T06:53:54.258Z,57.38
2019-04-21T06:54:49.451Z,57.69
2019-04-21T06:55:44.191Z,59.23
2019-04-21T06:56:48.285Z,58.69
2019-04-21T06:57:49.827Z,61.66
2019-04-21T06:58:45.037Z,61.35
2019-04-21T06:59:38.517Z,62.35
2019-04-21T07:00:41.117Z,57.84
2019-04-21T07:02:08.299Z,57.12
2019-04-21T07:03:49.330Z,54.74
2019-04-21T07:04:43.390Z,54.44
2019-04-21T07:05:52.447Z,55.26
2019-04-21T07:07:51.886Z,55.66
2019-04-21T07:08:56.617Z,55.26
2019-04-21T07:09:48.278Z,55.13
2019-04-21T07:10:46.459Z,55.13
2019-04-21T07:11:44.088Z,54.51
2019-04-21T07:12:39.285Z,55.02
2019-04-21T07:13:36.558Z,54.61
2019-04-21T07:14:58.941Z,54.41
2019-04-21T07:15:47.060Z,53.80
2019-04-21T07:16:45.261Z,54.08
2019-04-21T07:17:38.730Z,54.90
2019-04-21T07:18:51.247Z,53.88
2019-04-21T07:19:49.733Z,53.88
2019-04-21T07:20:46.227Z,53.85
2019-04-21T07:21:45.445Z,53.23
2019-04-21T07:22:46.051Z,52.72
2019-04-21T07:23:47.511Z,53.75
2019-04-21T07:24:42.807Z,52.01
2019-04-21T07:25:45.850Z,52.32
2019-04-21T07:26:42.707Z,52.29
2019-04-21T07:27:49.065Z,52.42
2019-04-21T07:28:47.831Z,52.50
2019-04-21T07:29:47.464Z,52.70
2019-04-21T07:30:44.235Z,53.52
2019-04-21T07:31:47.281Z,51.89
2019-04-21T07:32:51.454Z,51.45
2019-04-21T07:33:55.332Z,51.76
2019-04-21T07:34:48.062Z,51.96
2019-04-21T07:35:43.311Z,51.65
2019-04-21T07:36:52.516Z,52.78
2019-04-21T07:37:46.198Z,51.53
2019-04-21T07:38:39.981Z,52.75
2019-04-21T07:39:42.155Z,51.93
2019-04-21T07:40:36.322Z,51.55
2019-04-21T07:41:38.802Z,50.51
2019-04-21T07:42:38.024Z,51.32
2019-04-21T07:43:39.894Z,50.92
2019-04-21T07:44:35.037Z,51.93
2019-04-21T07:45:36.658Z,52.62
2019-04-21T07:46:33.902Z,53.14
2019-04-21T07:47:44.803Z,52.12
2019-04-21T07:48:44.558Z,51.30
2019-04-21T07:49:46.439Z,50.28
2019-04-21T07:50:40.264Z,50.38
2019-04-21T07:51:49.068Z,55.46
2019-04-21T07:52:47.014Z,53.83
2019-04-21T07:53:52.622Z,51.38
2019-04-21T07:54:44.795Z,51.07
2019-04-21T07:56:28.380Z,48.30
2019-04-21T07:57:37.698Z,48.60
2019-04-21T07:58:47.595Z,48.27
2019-04-21T07:59:52.249Z,47.36
2019-04-21T08:00:51.075Z,47.26
2019-04-21T08:01:48.369Z,46.85
2019-04-21T08:02:46.295Z,53.04
2019-04-21T08:03:39.894Z,47.64
2019-04-21T08:04:57.164Z,47.24
2019-04-21T08:05:58.645Z,47.42
2019-04-21T08:06:40.845Z,48.23
2019-04-21T08:09:57.006Z,46.07
2019-04-21T08:10:58.462Z,45.46
2019-04-21T08:11:51.826Z,47.29
2019-04-21T08:12:55.713Z,45.46
2019-04-21T08:13:57.909Z,45.67
2019-04-21T08:15:14.588Z,47.47
2019-04-21T08:15:57.789Z,45.76
2019-04-21T08:18:00.306Z,45.97
2019-04-21T08:18:59.859Z,48.49
2019-04-21T08:19:53.089Z,44.42
2019-04-21T08:21:02.347Z,46.66
2019-04-21T08:22:09.539Z,45.95
2019-04-21T08:22:58.909Z,45.52
2019-04-21T08:23:54.229Z,45.32
2019-04-21T08:25:03.227Z,44.51
2019-04-21T08:27:04.929Z,44.08
2019-04-21T08:28:01.148Z,44.18
2019-04-21T08:29:08.113Z,43.55
2019-04-21T08:29:58.289Z,44.46
2019-04-21T08:31:01.224Z,43.04
2019-04-21T08:32:16.046Z,43.57
2019-04-21T08:33:08.747Z,45.48
2019-04-21T08:34:05.520Z,44.18
2019-04-21T08:35:22.199Z,45.37
2019-04-21T08:37:02.305Z,44.67
2019-04-21T08:38:05.324Z,41.82
2019-04-21T08:39:01.652Z,43.35
2019-04-21T08:40:13.323Z,41.80
2019-04-21T08:41:01.929Z,43.02
2019-04-21T08:41:57.158Z,42.92
2019-04-21T08:42:58.189Z,42.31
2019-04-21T08:43:57.856Z,41.99
2019-04-21T08:45:03.881Z,45.86
2019-04-21T08:46:00.451Z,51.42
2019-04-21T08:47:02.633Z,47.97
2019-04-21T08:47:58.241Z,41.38
2019-04-21T08:49:00.815Z,47.54
2019-04-21T08:50:00.732Z,48.05
2019-04-21T08:51:16.744Z,44.40
2019-04-21T08:52:21.348Z,41.26
2019-04-21T08:53:00.783Z,42.27
2019-04-21T08:54:02.598Z,41.64
2019-04-21T08:55:05.655Z,43.67
2019-04-21T08:56:03.228Z,42.66
2019-04-21T08:57:01.152Z,41.24
2019-04-21T08:58:08.505Z,42.05
2019-04-21T08:59:03.891Z,44.56
2019-04-21T09:00:00.037Z,43.06
2019-04-21T09:01:01.130Z,41.22
2019-04-21T09:02:02.533Z,41.63
2019-04-21T09:03:01.773Z,41.83
2019-04-21T09:03:58.870Z,41.71
2019-04-21T09:04:59.825Z,39.98
2019-04-21T09:05:59.749Z,41.40
2019-04-21T09:08:01.776Z,41.20
2019-04-21T09:08:58.625Z,42.92
2019-04-21T09:09:57.535Z,41.99
2019-04-21T09:10:59.661Z,43.00
2019-04-21T09:11:59.707Z,40.88
2019-04-21T09:12:58.877Z,40.88
2019-04-21T09:13:57.535Z,39.95
2019-04-21T09:15:01.255Z,40.98
2019-04-21T09:15:52.490Z,40.25
2019-04-21T09:16:53.423Z,41.18
2019-04-21T09:17:50.233Z,40.95
2019-04-21T09:18:50.009Z,42.07
2019-04-21T09:20:59.928Z,41.85
2019-04-21T09:22:13.377Z,43.26
2019-04-21T09:23:00.796Z,44.27
2019-04-21T09:23:56.315Z,41.95
2019-04-21T09:25:00.300Z,41.73
2019-04-21T09:25:57.512Z,39.20
2019-04-21T09:27:01.491Z,39.28
2019-04-21T09:27:55.030Z,39.89
2019-04-21T09:28:52.204Z,39.48
2019-04-21T09:29:47.943Z,39.39
2019-04-21T09:30:46.673Z,38.98
2019-04-21T09:31:42.851Z,38.68
2019-04-21T09:32:40.366Z,39.06
2019-04-21T09:33:46.713Z,37.15
2019-04-21T09:34:43.562Z,39.37
2019-04-21T09:35:41.639Z,39.15
2019-04-21T09:36:46.744Z,37.84
2019-04-21T09:37:48.969Z,36.62
2019-04-21T09:38:42.443Z,36.91
2019-04-21T09:39:43.915Z,38.22
2019-04-21T09:40:44.131Z,37.31
2019-04-21T09:41:40.975Z,39.51
2019-04-21T09:42:45.583Z,38.40
2019-04-21T09:43:45.302Z,37.80
2019-04-21T09:44:42.539Z,37.58
2019-04-21T09:45:39.086Z,35.57
2019-04-21T09:46:47.523Z,35.66
2019-04-21T09:47:47.081Z,35.97
2019-04-21T09:48:49.852Z,35.65
2019-04-21T09:49:40.081Z,36.05
2019-04-21T09:50:39.616Z,34.34
2019-04-21T09:51:39.330Z,37.76
2019-04-21T09:52:46.737Z,35.73
2019-04-21T09:53:42.257Z,36.04
2019-04-21T09:54:48.251Z,39.76
2019-04-21T09:55:46.538Z,35.63
2019-04-21T09:56:47.302Z,36.04
2019-04-21T09:57:47.721Z,38.53
2019-04-21T09:58:45.762Z,35.71
2019-04-21T09:59:42.167Z,38.23
2019-04-21T10:00:49.884Z,38.23
2019-04-21T10:01:55.992Z,35.70
2019-04-21T10:02:47.041Z,35.71
2019-04-21T10:03:44.554Z,38.92
2019-04-21T10:04:39.966Z,38.33
2019-04-21T10:05:38.411Z,34.51
2019-04-21T10:06:37.861Z,34.39
2019-04-21T10:07:41.986Z,34.17
2019-04-21T10:08:38.842Z,35.28
2019-04-21T10:09:37.842Z,35.58
2019-04-21T10:10:38.337Z,35.58
2019-04-21T10:11:37.808Z,37.99
2019-04-21T10:12:37.799Z,39.08
2019-04-21T10:13:37.788Z,34.26
2019-04-21T10:14:38.817Z,34.96
2019-04-21T10:15:37.768Z,31.93
2019-04-21T10:16:38.598Z,32.73
2019-04-21T10:17:37.746Z,38.36
2019-04-21T10:18:37.983Z,33.04
2019-04-21T10:19:37.745Z,30.21
2019-04-21T10:20:38.543Z,29.71
2019-04-21T10:21:38.092Z,29.19
2019-04-21T10:22:39.211Z,28.09
2019-04-21T10:23:37.686Z,28.09
2019-04-21T10:24:38.341Z,27.59
2019-04-21T10:25:38.719Z,28.19
2019-04-21T10:26:37.672Z,27.17
2019-04-21T10:27:39.116Z,28.48
2019-04-21T10:28:37.631Z,28.17
2019-04-21T10:29:41.468Z,28.78
2019-04-21T10:30:38.609Z,28.48
2019-04-21T10:31:38.736Z,28.98
2019-04-21T10:32:38.582Z,29.66
2019-04-21T10:33:37.577Z,30.27
2019-04-21T10:34:37.839Z,29.27
2019-04-21T10:35:37.558Z,26.84
2019-04-21T10:36:37.546Z,28.16
2019-04-21T10:37:50.808Z,29.27
2019-04-21T10:38:46.066Z,27.16
2019-04-21T10:39:39.666Z,26.54
2019-04-21T10:40:37.502Z,28.25
2019-04-21T10:41:37.494Z,26.95
2019-04-21T10:42:37.480Z,24.44
2019-04-21T10:43:37.578Z,25.54
2019-04-21T10:44:38.611Z,30.65
2019-04-21T10:45:37.459Z,29.05
2019-04-21T10:46:38.153Z,26.95
2019-04-21T10:47:38.791Z,24.43
2019-04-21T10:48:38.266Z,25.63
2019-04-21T10:49:37.422Z,24.33
2019-04-21T10:50:37.400Z,28.82
2019-04-21T10:51:37.385Z,27.22
2019-04-21T10:52:37.408Z,24.22
2019-04-21T10:53:38.595Z,24.92
2019-04-21T10:55:01.756Z,23.52
2019-04-21T10:55:54.295Z,24.52
2019-04-21T10:56:43.264Z,23.50
2019-04-21T10:57:38.323Z,24.42
2019-04-21T10:58:38.291Z,25.61
2019-04-21T10:59:37.299Z,23.71
2019-04-21T11:00:37.302Z,24.11
2019-04-21T11:01:37.336Z,26.89
2019-04-21T11:02:37.269Z,23.30
2019-04-21T11:03:38.344Z,23.60
2019-04-21T11:04:39.085Z,24.79
2019-04-21T11:05:38.778Z,24.10
2019-04-21T11:06:37.229Z,24.49
2019-04-21T11:07:53.001Z,24.48
2019-04-21T11:08:43.342Z,24.68
2019-04-21T11:09:38.199Z,24.38
2019-04-21T11:10:38.173Z,22.99
2019-04-21T11:11:37.680Z,24.07
2019-04-21T11:12:39.290Z,26.17
2019-04-21T11:13:37.152Z,24.77
2019-04-21T11:14:37.142Z,22.77
2019-04-21T11:15:37.146Z,22.08
2019-04-21T11:16:37.295Z,22.67
2019-04-21T11:17:37.114Z,23.68
2019-04-21T11:18:37.795Z,22.97
2019-04-21T11:19:37.089Z,24.17
2019-04-21T11:20:37.229Z,21.88
2019-04-21T11:21:37.068Z,27.57
2019-04-21T11:22:38.890Z,26.46
2019-04-21T11:23:37.518Z,27.36
2019-04-21T11:24:37.040Z,26.56
2019-04-21T11:25:37.804Z,22.76
2019-04-21T11:26:37.901Z,22.16
2019-04-21T11:27:37.321Z,21.06
2019-04-21T11:28:37.018Z,24.75
2019-04-21T11:29:37.200Z,22.34
2019-04-21T11:30:38.014Z,22.45
2019-04-21T11:31:36.979Z,22.74
2019-04-21T11:32:37.119Z,27.43
2019-04-21T11:33:37.589Z,27.43
2019-04-21T11:34:36.931Z,25.54
2019-04-21T11:35:37.203Z,21.93
2019-04-21T11:36:37.504Z,22.83
2019-04-21T11:37:37.853Z,22.23
2019-04-21T11:38:54.266Z,22.62
2019-04-21T11:39:45.775Z,19.64
2019-04-21T11:40:38.088Z,24.51
2019-04-21T11:41:36.856Z,21.72
2019-04-21T11:42:37.799Z,24.32
2019-04-21T11:43:37.081Z,22.12
2019-04-21T11:44:37.320Z,22.42
2019-04-21T11:45:36.820Z,23.52
2019-04-21T11:46:38.271Z,22.22
2019-04-21T11:47:36.791Z,26.39
2019-04-21T11:48:36.781Z,22.61
2019-04-21T11:49:37.053Z,19.22
2019-04-21T11:50:37.135Z,20.62
2019-04-21T11:51:37.412Z,19.32
2019-04-21T11:52:36.953Z,18.22
2019-04-21T11:53:37.029Z,18.32
2019-04-21T11:54:37.080Z,19.41
2019-04-21T11:55:39.529Z,17.91
2019-04-21T11:56:38.885Z,17.71
2019-04-21T11:57:42.707Z,21.98
2019-04-21T11:58:37.678Z,21.19
2019-04-21T11:59:37.608Z,20.28
2019-04-21T12:00:37.728Z,21.97
2019-04-21T12:01:36.652Z,21.16
2019-04-21T12:02:37.382Z,21.26
2019-04-21T12:03:37.752Z,23.45
2019-04-21T12:04:36.651Z,24.05
2019-04-21T12:05:37.290Z,20.97
2019-04-21T12:06:43.126Z,20.16
2019-04-21T12:07:37.725Z,22.25
2019-04-21T12:08:42.191Z,19.46
2019-04-21T12:09:37.764Z,22.14
2019-04-21T12:10:37.638Z,20.54
2019-04-21T12:11:36.552Z,19.05
2019-04-21T12:12:37.159Z,19.93
2019-04-21T12:13:36.521Z,19.53
2019-04-21T12:14:36.615Z,16.84
2019-04-21T12:15:36.823Z,18.32
2019-04-21T12:16:37.026Z,19.70
2019-04-21T12:17:36.484Z,17.70
2019-04-21T12:18:36.811Z,16.88
2019-04-21T12:19:36.834Z,16.16
2019-04-21T12:20:37.634Z,14.85
2019-04-21T12:21:49.151Z,16.69
2019-04-21T12:22:37.516Z,15.99
2019-04-21T12:23:36.514Z,13.12
2019-04-21T12:24:37.985Z,14.08
2019-04-21T12:25:36.844Z,11.81
2019-04-21T12:26:36.400Z,12.95
2019-04-21T12:27:36.382Z,10.21
2019-04-21T12:28:37.537Z,10.60
2019-04-21T12:29:37.707Z,11.54
2019-04-21T12:30:37.675Z,11.42
2019-04-21T12:31:36.357Z,10.44
2019-04-21T12:32:36.335Z,10.03
2019-04-21T12:33:36.365Z,9.63
2019-04-21T12:34:36.324Z,8.36
2019-04-21T12:35:37.693Z,9.31
2019-04-21T12:36:36.317Z,7.57
2019-04-21T12:37:37.174Z,8.80
2019-04-21T12:38:46.573Z,8.40
2019-04-21T12:39:38.662Z,8.77
2019-04-21T12:40:36.736Z,6.95
2019-04-21T12:41:36.410Z,8.18
2019-04-21T12:42:38.828Z,6.93
2019-04-21T12:43:36.967Z,7.70
2019-04-21T12:44:37.170Z,7.98
2019-04-21T12:45:36.219Z,7.78
2019-04-21T12:46:36.332Z,7.40
2019-04-21T12:47:37.699Z,7.59
2019-04-21T12:48:37.920Z,7.10
2019-04-21T12:49:36.297Z,6.25
2019-04-21T12:50:36.322Z,7.57
2019-04-21T12:51:37.586Z,7.57
2019-04-21T12:52:37.712Z,6.54
2019-04-21T12:53:36.251Z,5.40
2019-04-21T12:54:37.524Z,5.77
2019-04-21T12:55:40.545Z,6.25
2019-04-21T12:56:37.935Z,5.77
2019-04-21T12:57:37.220Z,6.71
2019-04-21T12:58:37.337Z,6.99
2019-04-21T12:59:37.662Z,5.86
2019-04-21T13:00:36.753Z,6.04
2019-04-21T13:01:37.020Z,6.70
2019-04-21T13:02:36.107Z,5.29
2019-04-21T13:03:37.526Z,6.32
2019-04-21T13:04:36.070Z,5.94
2019-04-21T13:05:36.062Z,5.56
2019-04-21T13:06:37.262Z,5.74
2019-04-21T13:07:37.340Z,6.02
2019-04-21T13:08:45.682Z,6.21
2019-04-21T13:09:37.546Z,5.93
2019-04-21T13:10:36.059Z,5.46
2019-04-21T13:11:37.148Z,5.36
2019-04-21T13:12:36.025Z,4.89
2019-04-21T13:13:36.007Z,4.99
2019-04-21T13:14:35.998Z,4.99
2019-04-21T13:15:35.994Z,4.61
2019-04-21T13:16:37.078Z,5.83
2019-04-21T13:17:37.265Z,6.49
2019-04-21T13:18:37.381Z,5.64
2019-04-21T13:19:35.965Z,5.07
2019-04-21T13:20:36.006Z,4.98
2019-04-21T13:21:36.177Z,5.35
2019-04-21T13:22:36.036Z,5.07
2019-04-21T13:23:36.995Z,4.69
2019-04-21T13:24:36.049Z,4.89
2019-04-21T13:25:36.041Z,5.83
2019-04-21T13:26:42.864Z,5.83
2019-04-21T13:27:36.931Z,4.70
2019-04-21T13:28:35.909Z,5.63
2019-04-21T13:29:36.428Z,4.97
2019-04-21T13:30:36.253Z,5.91
2019-04-21T13:31:36.249Z,6.01
2019-04-21T13:32:37.303Z,5.06
2019-04-21T13:33:35.878Z,6.19
2019-04-21T13:34:36.042Z,5.54
2019-04-21T13:35:37.169Z,5.54
2019-04-21T13:36:36.030Z,4.97
2019-04-21T13:37:37.303Z,6.19
2019-04-21T13:38:42.764Z,5.35
2019-04-21T13:40:04.849Z,6.10
2019-04-21T13:40:54.432Z,5.07
2019-04-21T13:41:51.884Z,5.90
2019-04-21T13:42:41.985Z,5.34
2019-04-21T13:43:37.163Z,5.34
2019-04-21T13:44:36.986Z,5.63
2019-04-21T13:45:36.150Z,5.07
2019-04-21T13:46:36.504Z,4.88
2019-04-21T13:47:36.543Z,4.69
2019-04-21T13:48:36.870Z,5.35
2019-04-21T13:49:37.041Z,4.97
2019-04-21T13:50:37.207Z,4.97
2019-04-21T13:51:36.080Z,5.16
2019-04-21T13:52:36.527Z,5.16
2019-04-21T13:53:36.277Z,4.97
2019-04-21T13:54:35.817Z,5.33
2019-04-21T13:55:37.057Z,4.68
2019-04-21T13:56:36.314Z,4.68
2019-04-21T13:57:36.585Z,4.96
2019-04-21T13:58:35.738Z,5.62
2019-04-21T13:59:36.333Z,5.99
2019-04-21T14:00:35.906Z,5.34